createdAt,value
2023-02-03T00:02:23.234Z,4.00
2023-02-03T00:05:15.389Z,2.30
2023-02-03T00:08:11.799Z,2.90
2023-02-03T00:11:04.068Z,2.90
2023-02-03T00:13:56.174Z,2.20
2023-02-03T00:16:30.845Z,2.80
2023-02-03T00:19:23.138Z,3.00
2023-02-03T00:22:06.572Z,3.00
2023-02-03T00:24:58.672Z,3.90
2023-02-03T00:27:50.755Z,2.80
2023-02-03T00:30:43.152Z,3.40
2023-02-03T00:33:24.033Z,3.10
2023-02-03T00:36:16.712Z,4.00
2023-02-03T00:39:08.846Z,2.00
2023-02-03T00:42:01.018Z,2.00
2023-02-03T00:44:53.172Z,2.60
2023-02-03T00:47:45.593Z,2.40
2023-02-03T00:50:37.638Z,2.40
2023-02-03T00:53:29.695Z,2.30
2023-02-03T00:56:12.650Z,1.60
2023-02-03T00:59:04.939Z,2.10
2023-02-03T01:01:57.153Z,2.10
2023-02-03T01:04:49.519Z,2.30
2023-02-03T01:07:41.629Z,1.80
2023-02-03T01:10:33.701Z,1.80
2023-02-03T01:13:25.790Z,1.70
2023-02-03T01:16:19.426Z,2.20
2023-02-03T01:19:12.198Z,1.50
2023-02-03T01:22:04.269Z,1.90
2023-02-03T01:24:56.450Z,0.90
2023-02-03T01:27:48.541Z,1.60
2023-02-03T01:30:40.792Z,1.00
2023-02-03T01:33:32.922Z,1.60
2023-02-03T01:36:26.602Z,1.70
2023-02-03T01:39:18.936Z,1.10
2023-02-03T01:42:15.502Z,1.40
2023-02-03T01:45:11.427Z,0.90
2023-02-03T01:48:05.360Z,1.10
2023-02-03T01:50:57.573Z,0.70
2023-02-03T01:53:49.884Z,1.10
2023-02-03T01:56:25.318Z,1.00
2023-02-03T01:59:20.790Z,1.60
2023-02-03T02:02:14.260Z,2.10
2023-02-03T02:05:12.644Z,1.40
2023-02-03T02:08:06.861Z,2.20
2023-02-03T02:11:00.090Z,1.40
2023-02-03T02:13:55.182Z,1.20
2023-02-03T02:16:56.597Z,0.90
2023-02-03T02:20:26.601Z,1.20
2023-02-03T02:23:47.291Z,1.50
2023-02-03T02:26:51.867Z,1.40
2023-02-03T02:30:34.255Z,1.50
2023-02-03T02:33:38.020Z,2.30
2023-02-03T02:36:30.461Z,1.30
2023-02-03T02:39:31.204Z,1.40
2023-02-03T02:42:29.381Z,0.90
2023-02-03T02:45:27.382Z,1.30
2023-02-03T02:48:25.818Z,1.10
2023-02-03T02:51:19.235Z,1.30
2023-02-03T02:54:16.547Z,1.50
2023-02-03T02:57:11.168Z,1.20
2023-02-03T03:00:04.828Z,1.60
2023-02-03T03:02:57.830Z,1.60
2023-02-03T03:05:55.163Z,1.60
2023-02-03T03:08:52.769Z,1.80
2023-02-03T03:11:48.584Z,2.00
2023-02-03T03:14:44.820Z,1.90
2023-02-03T03:17:42.760Z,2.00
2023-02-03T03:20:40.193Z,1.90
2023-02-03T03:23:39.764Z,1.50
2023-02-03T03:26:36.800Z,2.50
2023-02-03T03:29:35.220Z,2.10
2023-02-03T03:32:30.654Z,2.40
2023-02-03T03:35:24.087Z,1.80
2023-02-03T03:38:23.334Z,1.50
2023-02-03T03:41:20.941Z,1.40
2023-02-03T03:44:17.198Z,1.30
2023-02-03T03:47:17.648Z,1.90
2023-02-03T03:50:16.661Z,1.60
2023-02-03T03:53:11.746Z,1.80
2023-02-03T03:56:06.973Z,1.60
2023-02-03T03:59:02.292Z,1.90
2023-02-03T04:01:55.050Z,1.50
2023-02-03T04:04:49.288Z,1.90
2023-02-03T04:07:43.363Z,2.20
2023-02-03T04:10:37.711Z,1.40
2023-02-03T04:13:29.853Z,1.50
2023-02-03T04:16:22.046Z,1.40
2023-02-03T04:19:14.180Z,1.70
2023-02-03T04:22:06.285Z,1.80
2023-02-03T04:24:59.021Z,1.40
2023-02-03T04:27:51.092Z,1.40
2023-02-03T04:30:43.198Z,1.30
2023-02-03T04:33:35.461Z,1.70
2023-02-03T04:36:27.872Z,2.20
2023-02-03T04:39:19.960Z,2.60
2023-02-03T04:41:54.426Z,2.50
2023-02-03T04:44:37.314Z,2.70
2023-02-03T04:47:29.211Z,2.20
2023-02-03T04:50:21.400Z,1.90
2023-02-03T04:53:15.710Z,1.50
2023-02-03T04:56:09.455Z,1.40
2023-02-03T04:59:01.640Z,2.70
2023-02-03T05:01:53.951Z,2.30
2023-02-03T05:04:46.126Z,2.80
2023-02-03T05:07:38.228Z,2.70
2023-02-03T05:10:30.353Z,3.00
2023-02-03T05:13:22.779Z,2.40
2023-02-03T05:16:15.342Z,3.40
2023-02-03T05:19:08.775Z,2.30
2023-02-03T05:22:00.997Z,2.70
2023-02-03T05:24:53.279Z,3.00
2023-02-03T05:27:27.957Z,3.10
2023-02-03T05:30:20.361Z,3.80
2023-02-03T05:32:57.831Z,3.50
2023-02-03T05:35:50.024Z,3.90
2023-02-03T05:38:42.540Z,3.50
2023-02-03T05:41:52.400Z,3.20
2023-02-03T05:44:44.596Z,2.70
2023-02-03T05:47:36.696Z,3.10
2023-02-03T05:50:33.178Z,3.60
2023-02-03T05:53:26.136Z,3.40
2023-02-03T05:56:18.467Z,3.90
2023-02-03T05:59:10.681Z,4.80
2023-02-03T06:02:02.723Z,5.30
2023-02-03T06:04:43.829Z,5.10
2023-02-03T06:07:35.967Z,5.70
2023-02-03T06:10:28.913Z,4.90
2023-02-03T06:13:21.179Z,4.70
2023-02-03T06:16:13.248Z,4.70
2023-02-03T06:18:48.016Z,5.00
2023-02-03T06:21:40.053Z,4.40
2023-02-03T06:24:32.134Z,4.50
2023-02-03T06:27:24.439Z,4.40
2023-02-03T06:30:17.329Z,4.20
2023-02-03T06:33:09.415Z,4.60
2023-02-03T06:36:01.455Z,4.30
2023-02-03T06:38:53.775Z,4.70
2023-02-03T06:41:45.896Z,3.70
2023-02-03T06:44:37.962Z,4.40
2023-02-03T06:47:15.254Z,3.70
2023-02-03T06:50:08.528Z,5.00
2023-02-03T06:52:53.253Z,4.40
2023-02-03T06:55:45.391Z,4.60
2023-02-03T06:58:37.405Z,4.70
2023-02-03T07:01:29.763Z,4.60
2023-02-03T07:04:07.508Z,4.50
2023-02-03T07:06:42.226Z,4.90
2023-02-03T07:09:26.004Z,3.90
2023-02-03T07:12:18.099Z,3.00
2023-02-03T07:14:59.095Z,3.10
2023-02-03T07:17:54.993Z,3.70
2023-02-03T07:23:37.964Z,3.80
2023-02-03T07:26:30.199Z,2.60
2023-02-03T07:29:22.258Z,3.70
2023-02-03T07:32:03.203Z,3.60
2023-02-03T07:34:55.379Z,3.80
2023-02-03T07:37:47.623Z,3.80
2023-02-03T07:40:24.896Z,3.80
2023-02-03T07:43:17.431Z,4.30
2023-02-03T07:46:09.568Z,3.50
2023-02-03T07:49:04.380Z,2.60
2023-02-03T07:51:56.698Z,4.00
2023-02-03T07:54:49.111Z,3.10
2023-02-03T07:57:43.418Z,3.50
2023-02-03T08:00:36.087Z,3.90
2023-02-03T08:03:28.367Z,3.50
2023-02-03T08:06:20.862Z,3.50
2023-02-03T08:09:12.891Z,4.30
2023-02-03T08:12:05.471Z,4.50
2023-02-03T08:14:57.574Z,3.90
2023-02-03T08:17:50.073Z,4.40
2023-02-03T08:20:42.344Z,4.40
2023-02-03T08:23:34.547Z,3.50
2023-02-03T08:26:26.697Z,4.70
2023-02-03T08:29:01.589Z,4.40
2023-02-03T08:31:54.968Z,4.20
2023-02-03T08:34:47.508Z,4.30
2023-02-03T08:37:39.759Z,5.30
2023-02-03T08:40:32.316Z,4.10
2023-02-03T08:43:24.409Z,4.80
2023-02-03T08:46:16.631Z,3.40
2023-02-03T08:49:08.718Z,3.80
2023-02-03T08:52:00.983Z,4.90
2023-02-03T08:54:53.192Z,3.90
2023-02-03T08:57:45.841Z,4.20
2023-02-03T09:00:37.985Z,4.50
2023-02-03T09:03:30.151Z,3.60
2023-02-03T09:06:23.793Z,3.30
2023-02-03T09:09:18.090Z,3.20
2023-02-03T09:12:12.366Z,3.60
2023-02-03T09:15:04.900Z,2.00
2023-02-03T09:17:57.919Z,2.90
2023-02-03T09:20:50.193Z,2.60
2023-02-03T09:23:42.966Z,3.10
2023-02-03T09:26:35.609Z,3.00
2023-02-03T09:29:28.114Z,4.60
2023-02-03T09:32:20.276Z,2.90
2023-02-03T09:35:12.494Z,3.50
2023-02-03T09:38:04.559Z,3.30
2023-02-03T09:41:11.142Z,3.20
2023-02-03T09:44:10.120Z,3.00
2023-02-03T09:46:51.738Z,2.70
2023-02-03T09:49:48.291Z,2.60
2023-02-03T09:52:44.205Z,3.80
2023-02-03T09:55:29.031Z,4.30
2023-02-03T09:58:23.231Z,3.10
2023-02-03T10:01:20.078Z,3.40
2023-02-03T10:04:29.558Z,4.00
2023-02-03T10:07:29.707Z,3.60
2023-02-03T10:10:32.855Z,4.20
2023-02-03T10:13:33.983Z,3.80
2023-02-03T10:16:49.971Z,3.70
2023-02-03T10:19:47.886Z,2.60
2023-02-03T10:22:44.702Z,2.90
2023-02-03T10:25:41.745Z,3.40
2023-02-03T10:28:24.740Z,3.70
2023-02-03T10:31:21.376Z,3.50
2023-02-03T10:34:16.183Z,4.90
2023-02-03T10:37:20.495Z,3.40
2023-02-03T10:39:55.947Z,2.10
2023-02-03T10:43:08.189Z,4.10
2023-02-03T10:46:01.240Z,3.40
2023-02-03T10:48:53.311Z,1.70
2023-02-03T10:51:49.985Z,3.70
2023-02-03T10:54:42.163Z,3.20
2023-02-03T10:57:39.234Z,3.60
2023-02-03T11:00:34.243Z,3.90
2023-02-03T11:03:29.635Z,3.40
2023-02-03T11:06:21.724Z,4.70
2023-02-03T11:09:30.466Z,4.00
2023-02-03T11:12:22.931Z,1.90
2023-02-03T11:15:18.359Z,3.10
2023-02-03T11:17:55.968Z,4.70
2023-02-03T11:20:48.188Z,4.50
2023-02-03T11:23:46.205Z,3.50
2023-02-03T11:26:41.890Z,3.80
2023-02-03T11:29:36.036Z,4.90
2023-02-03T11:32:36.028Z,3.40
2023-02-03T11:35:29.571Z,3.70
2023-02-03T11:38:33.203Z,2.40
2023-02-03T11:41:25.363Z,3.30
2023-02-03T11:44:22.334Z,3.40
2023-02-03T11:47:18.333Z,3.00
2023-02-03T11:50:26.871Z,2.60
2023-02-03T11:56:32.479Z,2.70
2023-02-03T11:59:53.735Z,4.00
2023-02-03T12:03:34.623Z,3.50
2023-02-03T12:07:04.591Z,2.90
2023-02-03T12:10:06.983Z,2.80
2023-02-03T12:12:53.056Z,3.80
2023-02-03T12:15:55.023Z,3.90
2023-02-03T12:18:58.530Z,3.30
2023-02-03T12:21:57.607Z,3.00
2023-02-03T12:24:59.712Z,3.00
2023-02-03T12:27:57.950Z,2.90
2023-02-03T12:30:55.135Z,2.40
2023-02-03T12:33:51.672Z,2.90
2023-02-03T12:36:27.936Z,3.40
2023-02-03T12:39:09.133Z,4.10
2023-02-03T12:42:08.063Z,3.50
2023-02-03T12:45:04.761Z,5.00
2023-02-03T12:47:59.836Z,3.50
2023-02-03T12:50:57.435Z,5.80
2023-02-03T12:53:56.872Z,4.70
2023-02-03T12:56:54.984Z,4.20
2023-02-03T12:59:54.875Z,5.30
2023-02-03T13:03:00.643Z,4.80
2023-02-03T13:06:06.269Z,4.70
2023-02-03T13:09:02.414Z,5.30
2023-02-03T13:17:47.961Z,4.20
2023-02-03T13:20:40.262Z,5.80
2023-02-03T13:23:33.179Z,3.90
2023-02-03T13:26:57.696Z,3.80
2023-02-03T13:30:03.757Z,4.50
2023-02-03T13:33:22.800Z,4.90
2023-02-03T13:36:35.009Z,3.90
2023-02-03T13:39:40.400Z,2.90
2023-02-03T13:42:35.063Z,3.90
2023-02-03T13:45:22.681Z,3.40
2023-02-03T13:48:20.556Z,3.70
2023-02-03T13:51:18.763Z,2.90
2023-02-03T13:54:18.641Z,4.20
2023-02-03T13:57:04.169Z,3.60
2023-02-03T13:59:46.697Z,3.30
2023-02-03T14:02:55.289Z,4.00
2023-02-03T14:05:52.225Z,4.10
2023-02-03T14:08:52.451Z,4.20
2023-02-03T14:11:45.591Z,1.90
2023-02-03T14:15:04.202Z,2.60
2023-02-03T14:18:24.448Z,1.90
2023-02-03T14:21:20.519Z,2.70
2023-02-03T14:24:14.305Z,2.30
2023-02-03T14:27:18.084Z,2.20
2023-02-03T14:30:13.460Z,1.80
2023-02-03T14:33:05.854Z,2.30
2023-02-03T14:35:40.930Z,2.10
2023-02-03T14:38:35.190Z,2.00
2023-02-03T14:41:38.262Z,1.70
2023-02-03T14:44:41.388Z,1.70
2023-02-03T14:47:49.347Z,1.30
2023-02-03T14:50:53.924Z,1.40
2023-02-03T14:54:05.373Z,1.60
2023-02-03T14:57:19.474Z,1.70
2023-02-03T15:00:31.493Z,1.50
2023-02-03T15:03:26.008Z,1.60
2023-02-03T15:06:41.313Z,1.80
2023-02-03T15:09:39.460Z,1.90
2023-02-03T15:12:23.964Z,1.70
2023-02-03T15:15:23.680Z,2.70
2023-02-03T15:18:29.774Z,2.60
2023-02-03T15:21:22.600Z,2.80
2023-02-03T15:24:21.431Z,2.80
2023-02-03T15:27:24.619Z,1.80
2023-02-03T15:30:23.867Z,3.10
2023-02-03T15:33:21.215Z,2.90
2023-02-03T15:36:20.226Z,3.50
2023-02-03T15:39:23.140Z,2.50
2023-02-03T15:42:22.954Z,2.30
2023-02-03T15:45:27.893Z,3.50
2023-02-03T15:48:27.680Z,3.10
2023-02-03T15:51:24.465Z,3.90
2023-02-03T15:54:23.395Z,4.20
2023-02-03T15:57:21.693Z,3.90
2023-02-03T16:00:30.206Z,4.90
2023-02-03T16:03:21.752Z,5.20
2023-02-03T16:06:17.059Z,5.40
2023-02-03T16:09:26.539Z,4.70
2023-02-03T16:12:24.455Z,4.60
2023-02-03T16:15:26.277Z,4.90
2023-02-03T16:18:19.675Z,5.70
2023-02-03T16:21:28.778Z,4.20
2023-02-03T16:24:40.225Z,4.50
2023-02-03T16:27:35.974Z,2.10
2023-02-03T16:30:46.227Z,4.20
2023-02-03T16:33:38.455Z,4.50
2023-02-03T16:36:48.338Z,4.10
2023-02-03T16:39:41.015Z,3.80
2023-02-03T16:42:58.804Z,4.50
2023-02-03T16:46:13.840Z,3.90
2023-02-03T16:49:13.914Z,3.80
2023-02-03T16:52:08.462Z,4.50
2023-02-03T16:55:00.702Z,3.90
2023-02-03T16:57:52.992Z,4.60
2023-02-03T17:00:49.358Z,5.20
2023-02-03T17:03:41.448Z,5.40
2023-02-03T17:06:34.696Z,4.10
2023-02-03T17:09:26.768Z,5.00
2023-02-03T17:12:15.629Z,4.70
2023-02-03T17:15:08.744Z,5.20
2023-02-03T17:18:02.297Z,3.90
2023-02-03T17:20:58.135Z,4.90
2023-02-03T17:23:42.177Z,3.50
2023-02-03T17:26:35.134Z,4.90
2023-02-03T17:29:27.193Z,4.40
2023-02-03T17:32:04.665Z,4.00
2023-02-03T17:34:56.978Z,3.70
2023-02-03T17:37:49.158Z,4.80
2023-02-03T17:53:27.937Z,3.30
2023-02-03T17:56:23.236Z,2.80
2023-02-03T17:59:16.259Z,4.20
2023-02-03T18:01:59.924Z,4.10
2023-02-03T18:04:52.537Z,3.00
2023-02-03T18:07:44.978Z,4.30
2023-02-03T18:10:37.390Z,4.60
2023-02-03T18:13:32.898Z,3.00
2023-02-03T18:16:28.927Z,3.60
2023-02-03T18:22:11.623Z,2.20
2023-02-03T18:25:03.798Z,3.50
2023-02-03T18:27:55.892Z,2.90
2023-02-03T18:30:48.374Z,3.10
2023-02-03T18:33:41.042Z,3.50
2023-02-03T18:36:33.602Z,3.50
2023-02-03T18:39:25.699Z,4.10
2023-02-03T18:42:19.063Z,4.60
2023-02-03T18:45:13.102Z,4.00
2023-02-03T18:48:05.442Z,3.80
2023-02-03T18:50:48.822Z,4.30
2023-02-03T18:53:42.086Z,3.40
2023-02-03T18:56:36.319Z,3.00
2023-02-03T18:59:28.816Z,2.70
2023-02-03T19:02:21.858Z,2.50
2023-02-03T19:05:14.086Z,4.20
2023-02-03T19:08:06.235Z,3.30
2023-02-03T19:10:58.519Z,3.00
2023-02-03T19:13:50.793Z,2.10
2023-02-03T19:16:43.865Z,2.40
2023-02-03T19:19:36.149Z,2.80
2023-02-03T19:22:18.578Z,2.10
2023-02-03T19:25:11.244Z,1.50
2023-02-03T19:28:04.128Z,1.40
2023-02-03T19:31:02.904Z,1.70
2023-02-03T19:34:00.727Z,1.60
2023-02-03T19:36:52.954Z,1.60
2023-02-03T19:39:47.992Z,1.50
2023-02-03T19:42:29.339Z,1.90
2023-02-03T19:45:21.827Z,1.60
2023-02-03T19:48:14.568Z,2.20
2023-02-03T19:51:08.726Z,1.90
2023-02-03T19:53:58.797Z,1.80
2023-02-03T19:56:51.340Z,1.80
2023-02-03T19:59:44.242Z,2.30
2023-02-03T20:02:20.328Z,2.20
2023-02-03T20:05:13.270Z,2.20
2023-02-03T20:08:06.326Z,2.20
2023-02-03T20:10:42.130Z,2.80
2023-02-03T20:13:17.135Z,3.00
2023-02-03T20:16:09.802Z,3.50
2023-02-03T20:18:56.573Z,2.70
2023-02-03T20:21:40.107Z,3.30
2023-02-03T20:24:22.918Z,3.20
2023-02-03T20:27:15.601Z,2.70
2023-02-03T20:30:08.959Z,2.40
2023-02-03T20:33:01.338Z,2.70
2023-02-03T20:35:53.524Z,2.00
2023-02-03T20:38:45.683Z,2.40
2023-02-03T20:41:29.407Z,2.80
2023-02-03T20:44:21.536Z,4.60
2023-02-03T20:46:56.673Z,5.10
2023-02-03T20:49:49.528Z,2.30
2023-02-03T20:52:42.054Z,3.20
2023-02-03T20:55:36.404Z,2.50
2023-02-03T20:58:30.937Z,2.20
2023-02-03T21:01:24.532Z,1.60
2023-02-03T21:04:36.169Z,2.60
2023-02-03T21:07:31.347Z,2.20
2023-02-03T21:10:25.616Z,5.10
2023-02-03T21:13:23.301Z,2.10
2023-02-03T21:16:21.430Z,2.50
2023-02-03T21:19:18.211Z,2.30
2023-02-03T21:22:20.996Z,5.60
2023-02-03T21:24:57.974Z,16.30
2023-02-03T21:27:50.256Z,9.80
2023-02-03T21:30:42.611Z,4.50
2023-02-03T21:33:36.273Z,3.30
2023-02-03T21:36:29.942Z,2.60
2023-02-03T21:39:29.678Z,2.80
2023-02-03T21:42:42.060Z,3.10
2023-02-03T21:45:43.930Z,1.70
2023-02-03T21:48:40.046Z,2.40
2023-02-03T21:51:23.193Z,1.90
2023-02-03T21:54:23.315Z,2.30
2023-02-03T21:57:01.752Z,2.90
2023-02-03T21:59:53.854Z,2.50
2023-02-03T22:03:00.273Z,6.00
2023-02-03T22:05:53.013Z,5.80
2023-02-03T22:08:47.056Z,2.30
2023-02-03T22:11:39.172Z,1.80
2023-02-03T22:14:14.440Z,5.80
2023-02-03T22:16:49.618Z,2.70
2023-02-03T22:19:41.872Z,2.30
2023-02-03T22:22:34.220Z,1.80
2023-02-03T22:25:26.644Z,5.70
2023-02-03T22:28:18.872Z,2.50
2023-02-03T22:31:12.931Z,2.50
2023-02-03T22:34:05.173Z,2.20
2023-02-03T22:36:57.328Z,1.80
2023-02-03T22:39:49.558Z,2.60
2023-02-03T22:42:41.754Z,2.00
2023-02-03T22:45:17.018Z,1.40
2023-02-03T22:47:51.782Z,2.50
2023-02-03T22:50:44.040Z,7.10
2023-02-03T22:53:36.345Z,2.50
2023-02-03T22:56:28.516Z,2.20
2023-02-03T22:59:20.602Z,2.10
2023-02-03T23:01:55.323Z,2.90
2023-02-03T23:04:47.468Z,2.10
2023-02-03T23:07:40.001Z,2.10
2023-02-03T23:10:32.720Z,1.40
2023-02-03T23:13:25.264Z,1.30
2023-02-03T23:16:17.428Z,1.30
2023-02-03T23:19:09.559Z,1.30
2023-02-03T23:22:01.677Z,1.70
2023-02-03T23:24:42.573Z,1.10
2023-02-03T23:27:34.682Z,1.30
2023-02-03T23:30:26.977Z,1.10
2023-02-03T23:33:08.067Z,1.20
2023-02-03T23:36:00.116Z,0.80
2023-02-03T23:38:52.232Z,1.70
2023-02-03T23:41:44.554Z,1.30
2023-02-03T23:44:19.283Z,1.30
2023-02-03T23:47:11.694Z,1.30
2023-02-03T23:50:03.885Z,1.10
2023-02-03T23:52:56.004Z,0.70
2023-02-03T23:55:48.239Z,1.00
2023-02-03T23:58:40.407Z,1.10
